createdAt,value
2017-05-29T00:00:41.139Z,66.75
2017-05-29T00:01:42.558Z,67.46
2017-05-29T00:02:43.982Z,67.33
2017-05-29T00:03:45.397Z,67.04
2017-05-29T00:04:46.825Z,67.33
2017-05-29T00:05:48.245Z,67.24
2017-05-29T00:06:49.660Z,67.62
2017-05-29T00:07:51.084Z,67.52
2017-05-29T00:08:52.514Z,67.24
2017-05-29T00:09:53.986Z,67.43
2017-05-29T00:10:55.407Z,67.62
2017-05-29T00:11:56.829Z,67.33
2017-05-29T00:12:58.265Z,67.52
2017-05-29T00:13:59.750Z,67.43
2017-05-29T00:15:01.118Z,68.10
2017-05-29T00:16:02.533Z,67.33
2017-05-29T00:17:03.954Z,67.24
2017-05-29T00:18:05.373Z,67.33
2017-05-29T00:19:06.789Z,67.24
2017-05-29T00:20:08.217Z,68.49
2017-05-29T00:21:09.638Z,68.10
2017-05-29T00:22:11.058Z,68.40
2017-05-29T00:23:12.476Z,68.40
2017-05-29T00:24:13.915Z,67.82
2017-05-29T00:25:15.322Z,68.78
2017-05-29T00:26:16.764Z,68.01
2017-05-29T00:27:18.169Z,68.49
2017-05-29T00:28:19.588Z,68.10
2017-05-29T00:29:21.032Z,68.49
2017-05-29T00:30:22.460Z,67.82
2017-05-29T00:31:23.903Z,68.10
2017-05-29T00:32:25.322Z,67.43
2017-05-29T00:33:26.741Z,67.91
2017-05-29T00:34:28.182Z,67.14
2017-05-29T00:35:29.596Z,68.20
2017-05-29T00:36:31.031Z,67.62
2017-05-29T00:37:32.448Z,68.30
2017-05-29T00:38:33.875Z,67.24
2017-05-29T00:39:35.319Z,68.10
2017-05-29T00:40:36.734Z,67.82
2017-05-29T00:41:38.162Z,68.01
2017-05-29T00:42:39.574Z,67.82
2017-05-29T00:43:40.990Z,67.04
2017-05-29T00:44:42.409Z,68.20
2017-05-29T00:45:43.823Z,68.20
2017-05-29T00:46:45.248Z,67.72
2017-05-29T00:47:46.665Z,67.82
2017-05-29T00:48:48.095Z,67.52
2017-05-29T00:49:49.531Z,67.52
2017-05-29T00:50:50.953Z,67.82
2017-05-29T00:51:52.372Z,68.20
2017-05-29T00:52:53.802Z,67.43
2017-05-29T00:53:55.220Z,67.52
2017-05-29T00:54:56.638Z,67.14
2017-05-29T00:55:58.070Z,67.52
2017-05-29T00:56:59.532Z,67.04
2017-05-29T00:58:00.956Z,67.33
2017-05-29T00:59:02.385Z,67.43
2017-05-29T01:00:03.825Z,67.33
2017-05-29T01:01:05.262Z,67.33
2017-05-29T01:02:06.689Z,67.62
2017-05-29T01:03:08.122Z,67.52
2017-05-29T01:04:09.544Z,67.43
2017-05-29T01:05:10.963Z,67.04
2017-05-29T01:06:12.381Z,67.14
2017-05-29T01:07:13.807Z,67.33
2017-05-29T01:08:15.222Z,67.14
2017-05-29T01:09:16.690Z,67.04
2017-05-29T01:10:18.161Z,67.04
2017-05-29T01:11:19.521Z,67.14
2017-05-29T01:12:20.949Z,66.36
2017-05-29T01:13:22.379Z,67.04
2017-05-29T01:14:23.808Z,66.75
2017-05-29T01:15:25.251Z,67.14
2017-05-29T01:16:26.666Z,67.24
2017-05-29T01:17:28.084Z,67.33
2017-05-29T01:18:29.500Z,66.94
2017-05-29T01:19:30.921Z,67.14
2017-05-29T01:20:32.343Z,66.94
2017-05-29T01:21:33.762Z,67.04
2017-05-29T01:22:35.173Z,67.14
2017-05-29T01:23:36.591Z,66.94
2017-05-29T01:24:38.013Z,66.27
2017-05-29T01:25:39.430Z,67.04
2017-05-29T01:26:40.851Z,67.04
2017-05-29T01:27:42.286Z,66.94
2017-05-29T01:28:43.721Z,66.66
2017-05-29T01:29:45.167Z,66.66
2017-05-29T01:30:46.586Z,66.66
2017-05-29T01:31:48.005Z,67.04
2017-05-29T01:32:49.443Z,66.56
2017-05-29T01:33:50.842Z,66.36
2017-05-29T01:34:52.273Z,66.46
2017-05-29T01:35:53.716Z,66.94
2017-05-29T01:36:55.191Z,66.46
2017-05-29T01:37:56.558Z,66.66
2017-05-29T01:38:57.994Z,66.46
2017-05-29T01:39:59.423Z,66.66
2017-05-29T01:41:00.862Z,66.66
2017-05-29T01:42:02.298Z,66.46
2017-05-29T01:43:03.744Z,66.56
2017-05-29T01:44:05.179Z,66.08
2017-05-29T01:45:06.620Z,66.17
2017-05-29T01:46:08.057Z,66.66
2017-05-29T01:47:09.498Z,66.66
2017-05-29T01:48:10.934Z,66.36
2017-05-29T01:49:12.354Z,66.17
2017-05-29T01:50:13.785Z,66.46
2017-05-29T01:51:15.226Z,66.46
2017-05-29T01:52:16.666Z,66.66
2017-05-29T01:53:18.089Z,66.36
2017-05-29T01:54:19.513Z,65.98
2017-05-29T01:55:20.939Z,66.36
2017-05-29T01:56:22.361Z,66.56
2017-05-29T01:57:23.801Z,66.36
2017-05-29T01:58:25.250Z,66.36
2017-05-29T01:59:26.678Z,65.78
2017-05-29T02:00:28.090Z,66.46
2017-05-29T02:01:29.508Z,66.46
2017-05-29T02:02:30.940Z,66.66
2017-05-29T02:03:32.374Z,66.66
2017-05-29T02:04:33.817Z,66.17
2017-05-29T02:05:35.245Z,65.78
2017-05-29T02:06:36.662Z,66.17
2017-05-29T02:07:38.098Z,66.27
2017-05-29T02:08:39.501Z,65.88
2017-05-29T02:09:40.919Z,65.78
2017-05-29T02:10:42.383Z,66.08
2017-05-29T02:11:43.814Z,66.66
2017-05-29T02:12:45.244Z,66.36
2017-05-29T02:13:46.656Z,66.75
2017-05-29T02:14:48.073Z,66.36
2017-05-29T02:15:49.508Z,66.46
2017-05-29T02:16:50.923Z,66.08
2017-05-29T02:17:52.341Z,66.36
2017-05-29T02:18:53.779Z,66.36
2017-05-29T02:19:55.194Z,66.36
2017-05-29T02:20:56.626Z,66.46
2017-05-29T02:21:58.050Z,65.69
2017-05-29T02:22:59.461Z,66.27
2017-05-29T02:24:00.920Z,66.46
2017-05-29T02:25:02.360Z,65.78
2017-05-29T02:26:03.787Z,66.08
2017-05-29T02:27:05.215Z,66.36
2017-05-29T02:28:06.642Z,65.88
2017-05-29T02:29:08.073Z,66.27
2017-05-29T02:30:09.494Z,65.69
2017-05-29T02:31:10.909Z,65.88
2017-05-29T02:32:12.341Z,66.08
2017-05-29T02:33:13.752Z,66.17
2017-05-29T02:34:15.186Z,66.46
2017-05-29T02:35:16.605Z,66.17
2017-05-29T02:36:18.045Z,66.27
2017-05-29T02:37:19.469Z,66.17
2017-05-29T02:38:20.908Z,65.98
2017-05-29T02:39:22.337Z,66.17
2017-05-29T02:40:23.765Z,65.78
2017-05-29T02:41:25.182Z,65.78
2017-05-29T02:42:26.608Z,65.88
2017-05-29T02:43:28.016Z,65.88
2017-05-29T02:44:29.445Z,65.98
2017-05-29T02:45:30.865Z,65.69
2017-05-29T02:46:32.307Z,66.46
2017-05-29T02:47:33.721Z,66.17
2017-05-29T02:48:35.143Z,66.08
2017-05-29T02:49:36.561Z,66.08
2017-05-29T02:50:37.978Z,66.36
2017-05-29T02:51:39.397Z,66.36
2017-05-29T02:52:40.819Z,65.98
2017-05-29T02:53:42.243Z,66.08
2017-05-29T02:54:43.687Z,66.46
2017-05-29T02:55:45.114Z,66.08
2017-05-29T02:56:46.553Z,66.66
2017-05-29T02:57:47.974Z,66.75
2017-05-29T02:58:49.390Z,65.98
2017-05-29T02:59:50.823Z,65.98
2017-05-29T03:00:52.231Z,66.17
2017-05-29T03:01:53.649Z,66.08
2017-05-29T03:02:55.066Z,66.17
2017-05-29T03:03:56.486Z,65.78
2017-05-29T03:04:57.921Z,66.27
2017-05-29T03:05:59.339Z,66.66
2017-05-29T03:07:00.756Z,65.98
2017-05-29T03:08:02.186Z,66.17
2017-05-29T03:09:03.611Z,66.46
2017-05-29T03:10:05.029Z,66.08
2017-05-29T03:11:06.442Z,66.08
2017-05-29T03:12:07.861Z,65.88
2017-05-29T03:13:09.286Z,66.27
2017-05-29T03:14:10.714Z,66.27
2017-05-29T03:15:12.137Z,66.36
2017-05-29T03:16:14.365Z,66.17
2017-05-29T03:17:15.798Z,66.17
2017-05-29T03:18:17.217Z,65.78
2017-05-29T03:19:18.637Z,65.88
2017-05-29T03:20:20.053Z,66.17
2017-05-29T03:21:21.474Z,65.88
2017-05-29T03:22:22.904Z,66.66
2017-05-29T03:23:24.313Z,65.88
2017-05-29T03:24:25.729Z,66.56
2017-05-29T03:25:27.148Z,66.17
2017-05-29T03:26:28.565Z,65.98
2017-05-29T03:27:29.980Z,65.98
2017-05-29T03:28:31.402Z,66.56
2017-05-29T03:29:32.816Z,66.36
2017-05-29T03:30:34.269Z,66.17
2017-05-29T03:31:35.698Z,65.78
2017-05-29T03:32:37.118Z,67.14
2017-05-29T03:33:38.539Z,66.17
2017-05-29T03:34:39.957Z,66.17
2017-05-29T03:35:41.375Z,66.56
2017-05-29T03:36:42.795Z,66.94
2017-05-29T03:37:44.230Z,66.36
2017-05-29T03:38:45.657Z,67.04
2017-05-29T03:39:47.070Z,66.46
2017-05-29T03:40:48.489Z,66.17
2017-05-29T03:41:49.905Z,66.66
2017-05-29T03:42:51.327Z,66.17
2017-05-29T03:43:52.784Z,66.17
2017-05-29T03:44:54.204Z,66.75
2017-05-29T03:45:55.643Z,65.88
2017-05-29T03:46:57.060Z,66.08
2017-05-29T03:47:58.477Z,65.78
2017-05-29T03:48:59.895Z,66.36
2017-05-29T03:50:01.314Z,65.78
2017-05-29T03:51:02.734Z,66.17
2017-05-29T03:52:04.170Z,65.88
2017-05-29T03:53:05.597Z,65.78
2017-05-29T03:54:07.020Z,66.27
2017-05-29T03:55:08.443Z,66.17
2017-05-29T03:56:09.856Z,65.88
2017-05-29T03:57:11.303Z,65.88
2017-05-29T03:58:12.725Z,65.69
2017-05-29T03:59:14.152Z,66.17
2017-05-29T04:00:15.569Z,65.88
2017-05-29T04:01:16.997Z,66.36
2017-05-29T04:02:18.430Z,66.08
2017-05-29T04:03:19.872Z,66.08
2017-05-29T04:04:21.294Z,65.69
2017-05-29T04:05:22.723Z,65.69
2017-05-29T04:06:24.158Z,65.30
2017-05-29T04:07:25.589Z,65.30
2017-05-29T04:08:27.024Z,65.20
2017-05-29T04:09:29.109Z,65.30
2017-05-29T04:10:30.533Z,64.72
2017-05-29T04:11:31.955Z,65.50
2017-05-29T04:12:33.394Z,65.59
2017-05-29T04:13:34.852Z,65.50
2017-05-29T04:14:36.279Z,65.50
2017-05-29T04:15:37.707Z,65.20
2017-05-29T04:16:39.124Z,65.50
2017-05-29T04:17:40.555Z,65.40
2017-05-29T04:18:41.979Z,65.59
2017-05-29T04:19:43.400Z,65.59
2017-05-29T04:20:44.847Z,65.20
2017-05-29T04:21:46.267Z,66.53
2017-05-29T04:22:47.727Z,68.17
2017-05-29T04:23:49.147Z,69.04
2017-05-29T04:24:50.571Z,69.78
2017-05-29T04:25:52.020Z,70.54
2017-05-29T04:26:53.441Z,71.12
2017-05-29T04:27:54.891Z,71.58
2017-05-29T04:28:56.304Z,71.77
2017-05-29T04:29:57.767Z,72.09
2017-05-29T04:30:59.190Z,72.00
2017-05-29T04:32:00.618Z,71.51
2017-05-29T04:33:02.038Z,71.03
2017-05-29T04:34:03.465Z,71.22
2017-05-29T04:35:04.892Z,70.64
2017-05-29T04:36:06.329Z,70.84
2017-05-29T04:37:07.759Z,71.06
2017-05-29T04:38:09.235Z,70.84
2017-05-29T04:39:10.653Z,71.12
2017-05-29T04:40:12.081Z,71.32
2017-05-29T04:41:13.529Z,71.84
2017-05-29T04:42:14.998Z,71.45
2017-05-29T04:43:16.449Z,71.26
2017-05-29T04:44:17.907Z,71.74
2017-05-29T04:45:19.327Z,71.55
2017-05-29T04:46:20.778Z,70.90
2017-05-29T04:47:22.254Z,71.64
2017-05-29T04:48:23.693Z,71.58
2017-05-29T04:49:25.176Z,70.52
2017-05-29T04:50:27.188Z,70.72
2017-05-29T04:51:28.591Z,71.39
2017-05-29T04:52:30.062Z,70.04
2017-05-29T04:53:31.500Z,70.14
2017-05-29T04:54:32.986Z,69.74
2017-05-29T04:55:34.432Z,70.04
2017-05-29T04:56:35.882Z,69.84
2017-05-29T04:57:37.334Z,70.14
2017-05-29T04:58:38.763Z,69.74
2017-05-29T04:59:40.184Z,69.94
2017-05-29T05:00:41.620Z,70.26
2017-05-29T05:01:43.035Z,70.17
2017-05-29T05:02:44.466Z,69.78
2017-05-29T05:03:45.893Z,69.68
2017-05-29T05:04:47.528Z,71.48
2017-05-29T05:05:48.948Z,72.26
2017-05-29T05:06:50.378Z,73.13
2017-05-29T05:07:51.802Z,73.19
2017-05-29T05:08:53.234Z,73.58
2017-05-29T05:09:54.659Z,73.86
2017-05-29T05:10:56.101Z,73.86
2017-05-29T05:11:57.585Z,73.86
2017-05-29T05:12:59.028Z,73.96
2017-05-29T05:14:00.451Z,74.35
2017-05-29T05:15:01.884Z,74.93
2017-05-29T05:16:03.299Z,74.64
2017-05-29T05:17:04.727Z,75.37
2017-05-29T05:18:06.188Z,74.69
2017-05-29T05:19:07.615Z,74.06
2017-05-29T05:20:09.029Z,74.16
2017-05-29T05:21:10.452Z,73.96
2017-05-29T05:22:11.877Z,74.35
2017-05-29T05:23:13.305Z,74.35
2017-05-29T05:24:14.727Z,74.38
2017-05-29T05:25:16.155Z,73.52
2017-05-29T05:26:17.580Z,74.35
2017-05-29T05:27:18.998Z,74.16
2017-05-29T05:28:20.428Z,73.96
2017-05-29T05:29:21.848Z,73.61
2017-05-29T05:30:23.271Z,72.94
2017-05-29T05:31:24.693Z,73.03
2017-05-29T05:32:26.209Z,72.16
2017-05-29T05:33:27.628Z,73.03
2017-05-29T05:34:29.053Z,73.86
2017-05-29T05:35:30.469Z,72.84
2017-05-29T05:36:31.888Z,72.55
2017-05-29T05:37:33.308Z,71.87
2017-05-29T05:38:34.740Z,71.39
2017-05-29T05:39:36.164Z,71.14
2017-05-29T05:40:37.581Z,70.75
2017-05-29T05:41:38.993Z,70.94
2017-05-29T05:42:40.476Z,70.36
2017-05-29T05:43:41.911Z,69.49
2017-05-29T05:44:43.412Z,69.98
2017-05-29T05:45:44.832Z,69.59
2017-05-29T05:46:46.252Z,69.30
2017-05-29T05:47:47.674Z,69.10
2017-05-29T05:48:49.090Z,69.40
2017-05-29T05:49:50.511Z,69.10
2017-05-29T05:50:51.933Z,68.43
2017-05-29T05:51:53.367Z,68.75
2017-05-29T05:52:54.772Z,68.14
2017-05-29T05:53:56.191Z,68.24
2017-05-29T05:54:57.612Z,68.37
2017-05-29T05:55:59.045Z,68.08
2017-05-29T05:57:00.468Z,68.95
2017-05-29T05:58:01.888Z,68.56
2017-05-29T05:59:03.363Z,68.27
2017-05-29T06:00:04.792Z,68.17
2017-05-29T06:01:06.223Z,67.88
2017-05-29T06:02:07.638Z,67.59
2017-05-29T06:03:09.056Z,67.69
2017-05-29T06:04:10.478Z,67.30
2017-05-29T06:05:11.917Z,67.59
2017-05-29T06:06:13.329Z,67.01
2017-05-29T06:07:14.745Z,67.11
2017-05-29T06:08:16.175Z,67.01
2017-05-29T06:09:17.589Z,67.11
2017-05-29T06:10:19.011Z,66.72
2017-05-29T06:11:20.434Z,66.82
2017-05-29T06:12:21.861Z,66.53
2017-05-29T06:13:23.277Z,66.72
2017-05-29T06:14:24.707Z,66.43
2017-05-29T06:15:26.129Z,66.72
2017-05-29T06:16:27.552Z,66.05
2017-05-29T06:17:28.998Z,66.24
2017-05-29T06:18:30.433Z,66.05
2017-05-29T06:19:31.845Z,65.95
2017-05-29T06:20:33.278Z,66.24
2017-05-29T06:21:34.706Z,65.95
2017-05-29T06:22:36.112Z,65.75
2017-05-29T06:23:37.537Z,65.56
2017-05-29T06:24:38.966Z,65.66
2017-05-29T06:25:40.385Z,64.79
2017-05-29T06:26:41.847Z,65.66
2017-05-29T06:27:43.270Z,65.08
2017-05-29T06:28:44.693Z,65.37
2017-05-29T06:29:46.125Z,65.56
2017-05-29T06:30:47.540Z,65.08
2017-05-29T06:31:48.962Z,64.40
2017-05-29T06:32:50.390Z,64.40
2017-05-29T06:33:51.828Z,64.59
2017-05-29T06:34:53.232Z,64.79
2017-05-29T06:35:54.654Z,64.50
2017-05-29T06:36:56.083Z,64.69
2017-05-29T06:37:57.507Z,64.89
2017-05-29T06:38:58.933Z,64.89
2017-05-29T06:40:00.365Z,64.69
2017-05-29T06:41:01.797Z,64.89
2017-05-29T06:42:03.205Z,64.72
2017-05-29T06:43:04.646Z,64.40
2017-05-29T06:44:06.058Z,64.21
2017-05-29T06:45:07.491Z,64.40
2017-05-29T06:46:08.929Z,64.59
2017-05-29T06:47:10.355Z,64.24
2017-05-29T06:48:11.800Z,64.34
2017-05-29T06:49:13.224Z,64.62
2017-05-29T06:50:14.640Z,64.62
2017-05-29T06:51:16.064Z,63.76
2017-05-29T06:52:17.490Z,64.62
2017-05-29T06:53:18.912Z,63.76
2017-05-29T06:54:20.335Z,63.85
2017-05-29T06:55:21.792Z,63.95
2017-05-29T06:56:23.221Z,63.92
2017-05-29T06:57:24.679Z,63.95
2017-05-29T06:58:26.099Z,64.04
2017-05-29T06:59:27.533Z,63.76
2017-05-29T07:00:28.968Z,63.82
2017-05-29T07:01:30.379Z,64.24
2017-05-29T07:02:31.862Z,63.95
2017-05-29T07:03:33.309Z,63.95
2017-05-29T07:04:34.724Z,63.56
2017-05-29T07:05:36.147Z,63.56
2017-05-29T07:06:37.576Z,63.56
2017-05-29T07:07:38.996Z,63.56
2017-05-29T07:08:40.414Z,63.46
2017-05-29T07:09:41.840Z,63.66
2017-05-29T07:10:43.272Z,63.56
2017-05-29T07:11:44.692Z,63.66
2017-05-29T07:12:46.116Z,63.66
2017-05-29T07:13:47.578Z,63.66
2017-05-29T07:14:48.999Z,63.76
2017-05-29T07:15:50.438Z,63.27
2017-05-29T07:16:51.848Z,63.46
2017-05-29T07:17:53.272Z,63.27
2017-05-29T07:18:54.699Z,63.46
2017-05-29T07:19:56.133Z,63.56
2017-05-29T07:20:57.551Z,63.08
2017-05-29T07:21:59.006Z,62.98
2017-05-29T07:23:00.447Z,63.27
2017-05-29T07:24:01.866Z,63.37
2017-05-29T07:25:03.285Z,62.98
2017-05-29T07:26:04.726Z,62.69
2017-05-29T07:27:06.174Z,63.18
2017-05-29T07:28:07.598Z,62.98
2017-05-29T07:29:09.073Z,63.37
2017-05-29T07:30:10.502Z,62.98
2017-05-29T07:31:11.946Z,63.18
2017-05-29T07:32:13.371Z,62.79
2017-05-29T07:33:14.794Z,62.69
2017-05-29T07:34:16.224Z,62.69
2017-05-29T07:35:17.646Z,62.69
2017-05-29T07:36:19.140Z,62.50
2017-05-29T07:37:20.614Z,62.69
2017-05-29T07:38:22.046Z,62.59
2017-05-29T07:39:23.464Z,62.59
2017-05-29T07:40:24.902Z,62.79
2017-05-29T07:41:26.376Z,62.30
2017-05-29T07:42:27.852Z,62.43
2017-05-29T07:43:29.338Z,62.11
2017-05-29T07:44:30.758Z,62.24
2017-05-29T07:45:32.181Z,62.40
2017-05-29T07:46:33.613Z,62.40
2017-05-29T07:47:35.043Z,62.50
2017-05-29T07:48:36.474Z,62.69
2017-05-29T07:49:37.898Z,62.59
2017-05-29T07:50:39.319Z,62.14
2017-05-29T07:51:40.746Z,62.04
2017-05-29T07:52:42.174Z,62.72
2017-05-29T07:53:43.602Z,62.72
2017-05-29T07:54:45.023Z,62.59
2017-05-29T07:55:46.450Z,62.11
2017-05-29T07:56:47.871Z,62.14
2017-05-29T07:57:49.292Z,62.11
2017-05-29T07:58:50.729Z,62.53
2017-05-29T07:59:52.225Z,62.82
2017-05-29T08:00:53.681Z,62.40
2017-05-29T08:01:55.096Z,62.30
2017-05-29T08:02:56.572Z,62.79
2017-05-29T08:03:58.000Z,62.88
2017-05-29T08:04:59.416Z,62.30
2017-05-29T08:06:00.846Z,62.30
2017-05-29T08:07:02.276Z,62.30
2017-05-29T08:08:03.699Z,62.40
2017-05-29T08:09:05.129Z,62.30
2017-05-29T08:10:06.556Z,62.82
2017-05-29T08:11:08.008Z,62.30
2017-05-29T08:12:09.424Z,62.40
2017-05-29T08:13:10.849Z,62.01
2017-05-29T08:14:12.275Z,62.69
2017-05-29T08:15:13.769Z,62.88
2017-05-29T08:16:15.179Z,62.88
2017-05-29T08:17:16.616Z,62.88
2017-05-29T08:18:18.052Z,62.69
2017-05-29T08:19:19.569Z,62.59
2017-05-29T08:20:21.003Z,62.72
2017-05-29T08:21:22.520Z,62.63
2017-05-29T08:22:23.984Z,62.50
2017-05-29T08:23:25.403Z,62.79
2017-05-29T08:24:26.828Z,62.88
2017-05-29T08:25:28.256Z,62.82
2017-05-29T08:26:29.674Z,62.82
2017-05-29T08:27:31.098Z,62.82
2017-05-29T08:28:32.531Z,62.69
2017-05-29T08:29:33.954Z,62.69
2017-05-29T08:30:35.380Z,62.72
2017-05-29T08:31:36.819Z,62.14
2017-05-29T08:32:38.246Z,62.04
2017-05-29T08:33:39.669Z,61.85
2017-05-29T08:34:41.089Z,61.76
2017-05-29T08:35:42.540Z,61.85
2017-05-29T08:36:43.964Z,61.76
2017-05-29T08:37:45.395Z,61.56
2017-05-29T08:38:46.818Z,61.76
2017-05-29T08:39:48.242Z,61.66
2017-05-29T08:40:49.666Z,61.76
2017-05-29T08:41:51.092Z,62.14
2017-05-29T08:42:52.518Z,62.04
2017-05-29T08:43:53.943Z,62.14
2017-05-29T08:44:55.376Z,62.04
2017-05-29T08:45:56.802Z,61.95
2017-05-29T08:46:58.222Z,61.85
2017-05-29T08:47:59.641Z,61.76
2017-05-29T08:49:01.068Z,61.95
2017-05-29T08:50:02.483Z,61.85
2017-05-29T08:51:03.915Z,61.95
2017-05-29T08:52:05.362Z,61.95
2017-05-29T08:53:06.803Z,61.95
2017-05-29T08:54:08.244Z,61.95
2017-05-29T08:55:09.676Z,61.76
2017-05-29T08:56:11.095Z,62.24
2017-05-29T08:57:12.522Z,61.66
2017-05-29T08:58:13.949Z,61.76
2017-05-29T08:59:15.377Z,61.95
2017-05-29T09:00:16.814Z,61.85
2017-05-29T09:01:18.243Z,61.76
2017-05-29T09:02:19.672Z,62.04
2017-05-29T09:03:21.093Z,61.56
2017-05-29T09:04:22.516Z,61.95
2017-05-29T09:05:23.944Z,61.95
2017-05-29T09:06:25.383Z,61.95
2017-05-29T09:07:26.811Z,61.95
2017-05-29T09:08:28.245Z,61.85
2017-05-29T09:09:29.684Z,62.04
2017-05-29T09:10:31.114Z,61.85
2017-05-29T09:11:32.570Z,61.95
2017-05-29T09:12:33.999Z,61.76
2017-05-29T09:13:35.429Z,61.95
2017-05-29T09:14:36.847Z,61.95
2017-05-29T09:15:38.274Z,61.66
2017-05-29T09:16:39.697Z,61.36
2017-05-29T09:17:41.117Z,61.27
2017-05-29T09:18:42.541Z,61.95
2017-05-29T09:19:43.968Z,61.85
2017-05-29T09:20:45.396Z,61.36
2017-05-29T09:21:46.818Z,61.56
2017-05-29T09:22:48.248Z,61.76
2017-05-29T09:23:49.660Z,61.18
2017-05-29T09:24:51.081Z,61.36
2017-05-29T09:25:52.502Z,61.69
2017-05-29T09:26:53.920Z,60.98
2017-05-29T09:27:55.354Z,61.18
2017-05-29T09:28:56.777Z,60.91
2017-05-29T09:29:58.197Z,60.62
2017-05-29T09:30:59.630Z,60.72
2017-05-29T09:32:01.110Z,61.01
2017-05-29T09:33:02.484Z,60.52
2017-05-29T09:34:03.912Z,61.01
2017-05-29T09:35:05.335Z,61.01
2017-05-29T09:36:06.778Z,61.01
2017-05-29T09:37:08.220Z,61.21
2017-05-29T09:38:09.653Z,60.52
2017-05-29T09:39:11.064Z,60.52
2017-05-29T09:40:12.490Z,60.72
2017-05-29T09:41:13.933Z,60.52
2017-05-29T09:42:15.357Z,61.01
2017-05-29T09:43:16.778Z,61.01
2017-05-29T09:44:18.197Z,61.21
2017-05-29T09:45:19.623Z,60.43
2017-05-29T09:46:21.059Z,60.52
2017-05-29T09:47:22.478Z,60.62
2017-05-29T09:48:23.909Z,60.52
2017-05-29T09:49:25.356Z,60.43
2017-05-29T09:50:26.798Z,60.72
2017-05-29T09:51:28.222Z,60.33
2017-05-29T09:52:29.645Z,60.33
2017-05-29T09:53:31.070Z,60.72
2017-05-29T09:54:32.500Z,60.62
2017-05-29T09:55:33.921Z,60.62
2017-05-29T09:56:35.412Z,60.33
2017-05-29T09:57:36.774Z,60.04
2017-05-29T09:58:38.195Z,60.33
2017-05-29T09:59:39.625Z,60.24
2017-05-29T10:00:41.060Z,60.14
2017-05-29T10:01:42.482Z,60.14
2017-05-29T10:02:43.939Z,60.33
2017-05-29T10:03:45.375Z,59.94
2017-05-29T10:04:46.802Z,60.43
2017-05-29T10:05:48.232Z,60.04
2017-05-29T10:06:49.658Z,60.14
2017-05-29T10:07:51.083Z,60.14
2017-05-29T10:08:52.509Z,59.94
2017-05-29T10:09:53.950Z,59.46
2017-05-29T10:10:55.375Z,60.43
2017-05-29T10:11:56.803Z,59.94
2017-05-29T10:12:58.219Z,60.24
2017-05-29T10:13:59.649Z,59.84
2017-05-29T10:15:01.069Z,59.94
2017-05-29T10:16:02.492Z,59.56
2017-05-29T10:17:03.919Z,59.56
2017-05-29T10:18:05.344Z,59.36
2017-05-29T10:19:06.774Z,59.17
2017-05-29T10:20:08.197Z,59.36
2017-05-29T10:21:09.624Z,59.46
2017-05-29T10:22:11.085Z,59.36
2017-05-29T10:23:12.509Z,58.98
2017-05-29T10:24:13.928Z,58.69
2017-05-29T10:25:15.352Z,58.72
2017-05-29T10:26:16.775Z,59.10
2017-05-29T10:27:18.202Z,59.00
2017-05-29T10:28:19.632Z,59.59
2017-05-29T10:29:21.044Z,59.10
2017-05-29T10:30:22.482Z,59.69
2017-05-29T10:31:23.891Z,59.00
2017-05-29T10:32:25.326Z,58.72
2017-05-29T10:33:26.745Z,58.81
2017-05-29T10:34:28.176Z,58.91
2017-05-29T10:35:29.602Z,59.20
2017-05-29T10:36:31.032Z,58.14
2017-05-29T10:37:32.451Z,58.72
2017-05-29T10:38:33.879Z,58.72
2017-05-29T10:39:35.339Z,58.91
2017-05-29T10:40:36.772Z,58.52
2017-05-29T10:41:38.193Z,58.81
2017-05-29T10:42:39.620Z,58.42
2017-05-29T10:43:41.045Z,58.04
2017-05-29T10:44:42.497Z,59.20
2017-05-29T10:45:43.919Z,58.33
2017-05-29T10:46:45.351Z,59.10
2017-05-29T10:47:46.792Z,58.52
2017-05-29T10:48:48.211Z,58.62
2017-05-29T10:49:49.644Z,58.91
2017-05-29T10:50:51.079Z,58.62
2017-05-29T10:51:52.494Z,58.91
2017-05-29T10:52:53.921Z,58.62
2017-05-29T10:53:55.344Z,59.10
2017-05-29T10:54:56.788Z,58.52
2017-05-29T10:55:58.227Z,58.33
2017-05-29T10:56:59.672Z,58.42
2017-05-29T10:58:01.099Z,58.62
2017-05-29T10:59:02.519Z,58.42
2017-05-29T11:00:03.998Z,58.52
2017-05-29T11:01:05.378Z,58.52
2017-05-29T11:02:06.855Z,58.42
2017-05-29T11:03:08.270Z,58.91
2017-05-29T11:04:09.697Z,58.04
2017-05-29T11:05:11.124Z,57.78
2017-05-29T11:06:12.544Z,58.62
2017-05-29T11:07:13.973Z,58.42
2017-05-29T11:08:15.400Z,58.52
2017-05-29T11:09:16.818Z,58.16
2017-05-29T11:10:18.247Z,57.75
2017-05-29T11:11:19.670Z,57.78
2017-05-29T11:12:21.138Z,57.48
2017-05-29T11:13:22.572Z,58.16
2017-05-29T11:14:24.000Z,57.68
2017-05-29T11:15:25.433Z,57.09
2017-05-29T11:16:26.849Z,57.39
2017-05-29T11:17:28.279Z,57.19
2017-05-29T11:18:29.706Z,57.00
2017-05-29T11:19:31.129Z,57.29
2017-05-29T11:20:32.551Z,56.90
2017-05-29T11:21:33.976Z,57.39
2017-05-29T11:22:35.409Z,56.81
2017-05-29T11:23:36.833Z,56.81
2017-05-29T11:24:38.262Z,56.90
2017-05-29T11:25:39.745Z,56.90
2017-05-29T11:26:41.121Z,56.81
2017-05-29T11:27:42.573Z,56.51
2017-05-29T11:28:43.994Z,56.81
2017-05-29T11:29:45.424Z,56.41
2017-05-29T11:30:46.853Z,56.90
2017-05-29T11:31:48.268Z,56.51
2017-05-29T11:32:49.694Z,56.13
2017-05-29T11:33:51.125Z,56.61
2017-05-29T11:34:52.571Z,56.71
2017-05-29T11:35:53.996Z,56.71
2017-05-29T11:36:55.438Z,56.81
2017-05-29T11:37:56.880Z,57.09
2017-05-29T11:38:58.327Z,55.83
2017-05-29T11:39:59.750Z,56.61
2017-05-29T11:41:01.210Z,57.00
2017-05-29T11:42:02.627Z,56.41
2017-05-29T11:43:04.062Z,56.41
2017-05-29T11:44:05.492Z,55.93
2017-05-29T11:45:06.915Z,56.90
2017-05-29T11:46:08.338Z,56.61
2017-05-29T11:47:09.760Z,56.41
2017-05-29T11:48:11.184Z,56.51
2017-05-29T11:49:12.600Z,56.61
2017-05-29T11:50:14.031Z,56.23
2017-05-29T11:51:15.491Z,56.23
2017-05-29T11:52:16.918Z,56.51
2017-05-29T11:53:18.334Z,56.03
2017-05-29T11:54:19.759Z,56.23
2017-05-29T11:55:21.195Z,56.13
2017-05-29T11:56:22.611Z,56.03
2017-05-29T11:57:24.032Z,55.93
2017-05-29T11:58:25.454Z,56.61
2017-05-29T11:59:26.877Z,56.51
2017-05-29T12:00:28.353Z,56.61
2017-05-29T12:01:29.799Z,56.23
2017-05-29T12:02:31.215Z,56.32
2017-05-29T12:03:32.638Z,56.61
2017-05-29T12:04:34.069Z,56.03
2017-05-29T12:05:35.506Z,56.71
2017-05-29T12:06:36.991Z,57.00
2017-05-29T12:07:38.416Z,56.81
2017-05-29T12:08:39.890Z,56.71
2017-05-29T12:09:44.060Z,55.96
2017-05-29T12:10:45.462Z,56.03
2017-05-29T12:11:47.439Z,55.83
2017-05-29T12:12:50.633Z,55.93
2017-05-29T12:13:52.816Z,55.96
2017-05-29T12:14:56.675Z,55.83
2017-05-29T12:15:58.142Z,56.13
2017-05-29T12:17:02.444Z,55.96
2017-05-29T12:18:03.811Z,55.77
2017-05-29T12:19:07.613Z,55.38
2017-05-29T12:20:10.505Z,55.38
2017-05-29T12:21:12.479Z,55.47
2017-05-29T12:22:16.092Z,55.57
2017-05-29T12:23:18.672Z,55.57
2017-05-29T12:24:23.150Z,54.90
2017-05-29T12:25:24.623Z,55.18
2017-05-29T12:26:26.042Z,55.47
2017-05-29T12:27:29.483Z,55.47
2017-05-29T12:28:31.218Z,55.57
2017-05-29T12:29:32.945Z,55.57
2017-05-29T12:30:34.379Z,55.47
2017-05-29T12:31:38.207Z,55.08
2017-05-29T12:32:39.609Z,55.96
2017-05-29T12:33:44.061Z,55.77
2017-05-29T12:34:46.649Z,55.87
2017-05-29T12:35:49.602Z,56.13
2017-05-29T12:36:51.046Z,55.77
2017-05-29T12:37:52.474Z,55.57
2017-05-29T12:38:56.972Z,55.83
2017-05-29T12:40:00.828Z,55.54
2017-05-29T12:41:02.226Z,55.74
2017-05-29T12:42:04.496Z,56.13
2017-05-29T12:43:06.584Z,55.64
2017-05-29T12:44:09.493Z,56.03
2017-05-29T12:45:10.890Z,55.96
2017-05-29T12:46:13.426Z,55.35
2017-05-29T12:47:16.594Z,55.83
2017-05-29T12:48:20.748Z,55.83
2017-05-29T12:49:24.427Z,55.35
2017-05-29T12:50:26.145Z,55.44
2017-05-29T12:51:28.144Z,55.44
2017-05-29T12:52:29.840Z,55.44
2017-05-29T12:53:33.779Z,55.44
2017-05-29T12:54:38.183Z,55.26
2017-05-29T12:55:39.781Z,55.64
2017-05-29T12:56:41.237Z,55.16
2017-05-29T12:57:43.806Z,55.16
2017-05-29T12:58:45.236Z,54.60
2017-05-29T12:59:49.801Z,54.21
2017-05-29T13:00:51.657Z,54.60
2017-05-29T13:01:56.105Z,54.41
2017-05-29T13:03:00.487Z,54.02
2017-05-29T13:04:05.188Z,53.92
2017-05-29T13:05:06.923Z,54.11
2017-05-29T13:06:08.325Z,53.92
2017-05-29T13:07:09.758Z,54.11
2017-05-29T13:08:11.301Z,53.44
2017-05-29T13:09:12.790Z,53.53
2017-05-29T13:10:14.235Z,54.21
2017-05-29T13:11:15.708Z,54.21
2017-05-29T13:12:17.162Z,53.92